• Join FlightAware (Why Join?)
  • Login
  • US Flag 
08:22AM EDT


 

Airport Tracker/Info


-or-


 

Live Flight TrackerFlight Track Log ✈ EJA396 ✈ 30-Apr-2013 ✈ KPDK - KUDD

Flight Track Log - Related Links

Times and Time Zones

All times are in EDT time to prevent confusion due to time zone crossing. See the EJA396 flight status page for this flight to view local times or setup timezone preferences in your user account.

Time Position Orientation Groundspeed Altitude Reporting Facility
EDT Latitude Longitude Course Direction KTS MPH feet Rate Location/Type
07:38AM 33.8500 -84.3333 258° West 208 239 2,500  Level Atlanta TRACON
07:39AM 33.8833 -84.3833 309° West 214 246 4,300 2,400 Climbing Atlanta TRACON
07:40AM 33.8667 -84.4667 256° West 235 270 7,300 2,700 Climbing Atlanta TRACON
07:43AM 33.8136 -84.6764 253° West 316 364 13,300 2,580 Climbing Atlanta Center
07:44AM 33.7519 -84.9229 258° West  Level FlightAware Approximate
07:44AM 33.7939 -84.7961 259° West 356 410 15,800  Level Atlanta Center
07:45AM 33.7869 -84.9286 266° West 379 436 18,500 2,640 Climbing Atlanta Center
07:46AM 33.7797 -85.0561 266° West 392 451 21,100 2,340 Climbing Atlanta Center
07:47AM 33.7744 -85.1858 267° West 392 451 23,200 1,920 Climbing Atlanta Center
07:48AM 33.7667 -85.3208 266° West 406 467 25,000 1,680 Climbing Atlanta Center
07:49AM 33.7589 -85.4756 267° West 412 474 26,600 1,440 Climbing Atlanta Center
07:50AM 33.7508 -85.6178 266° West 423 487 28,000 1,380 Climbing Atlanta Center
07:51AM 33.7425 -85.7650 266° West 434 499 29,400 1,440 Climbing Atlanta Center
07:52AM 33.7322 -85.9072 265° West 439 505 30,900 1,380 Climbing Atlanta Center
07:53AM 33.7214 -86.0519 265° West 439 505 32,200 1,200 Climbing Atlanta Center
07:54AM 33.7189 -86.1967 269° West 444 511 33,400 1,200 Climbing Atlanta Center
07:55AM 33.7436 -86.3397 282° West 438 504 34,700 1,200 Climbing Atlanta Center
07:56AM 33.7722 -86.4778 284° West 438 504 35,800 1,140 Climbing Atlanta Center
07:57AM 33.7964 -86.6186 282° West 433 498 37,000 600 Climbing Atlanta Center
07:58AM 33.8247 -86.7544 284° West 428 493 37,000  Level Atlanta Center
07:59AM 33.8489 -86.8928 282° West 428 493 37,000  Level Atlanta Center
08:00AM 33.8978 -87.1564 283° West 462 532 37,000 180 Level Memphis Center
08:01AM 33.9239 -87.2881 283° West 432 497 37,600 780 Climbing Memphis Center
08:02AM 33.9522 -87.4250 284° West 415 478 38,600 960 Climbing Memphis Center
08:03AM 33.9761 -87.5594 282° West 415 478 39,600 840 Climbing Memphis Center
08:04AM 33.9956 -87.6789 281° West 409 471 40,300 720 Climbing Memphis Center
08:05AM 34.0169 -87.8086 281° West 409 471 41,100 780 Climbing Memphis Center
08:06AM 34.0447 -87.9356 285° West 404 465 41,900 720 Climbing Memphis Center
08:07AM 34.0636 -88.0606 280° West 392 451 42,600 540 Climbing Memphis Center
08:08AM 34.0869 -88.1978 282° West 387 445 43,000 180 Climbing Memphis Center
08:09AM 34.1058 -88.3203 281° West 387 445 43,000  Level Memphis Center
08:10AM 34.1267 -88.4400 282° West 387 445 43,000  Level Memphis Center
08:11AM 34.1492 -88.5575 283° West 374 430 43,000  Level Memphis Center
08:12AM 34.1697 -88.6778 282° West 368 423 43,000  Level Memphis Center
08:13AM 34.1900 -88.7978 282° West 373 429 43,000  Level Memphis Center
08:14AM 34.2103 -88.9131 282° West 366 421 43,000  Level Memphis Center
08:15AM 34.2303 -89.0383 281° West 366 421 43,000  Level Memphis Center
08:16AM 34.2503 -89.1586 281° West 371 427 43,000  Level Memphis Center
08:17AM 34.2703 -89.2789 281° West 371 427 43,000  Level Memphis Center
08:18AM 34.2878 -89.3894 281° West 371 427 43,000  Level Memphis Center
08:19AM 34.3097 -89.5147 282° West 371 427 43,000  Level Memphis Center
08:20AM 34.3292 -89.6403 281° West 377 434 43,000  Level Memphis Center
08:21AM 34.3508 -89.7658 282° West 377 434 43,000  Level Memphis Center
08:22AM 34.3700 -89.8892 281° West 377 434 43,000  Level Memphis Center
08:23AM 34.3914 -90.0275 281° West 377 434 43,000  Level Memphis Center
08:24AM 34.4106 -90.1533 280° West 377 434 43,000  Level Memphis Center
08:25AM 34.4336 -90.2792 283° West 382 440 43,000  Level Memphis Center
08:26AM 34.4522 -90.4025 280° West 387 445 43,000  Level Memphis Center
08:27AM 34.4731 -90.5311 281° West 392 451 43,000  Level Memphis Center
08:28AM 34.4917 -90.6569 280° West 392 451 43,000  Level Memphis Center
08:29AM 34.5142 -90.7831 282° West 392 451 43,000  Level Memphis Center
08:30AM 34.5306 -90.8967 280° West 392 451 43,000  Level Memphis Center
08:31AM 34.5486 -91.0278 280° West 392 451 43,000  Level Memphis Center
08:32AM 34.5667 -91.1542 280° West 392 451 43,000  Level Memphis Center
08:33AM 34.5889 -91.2831 282° West 392 451 43,000  Level Memphis Center
08:34AM 34.6067 -91.4094 280° West 392 451 43,000  Level Memphis Center
08:35AM 34.6264 -91.5383 281° West 392 451 43,000  Level Memphis Center
08:36AM 34.6478 -91.6800 280° West 392 451 43,000  Level Memphis Center
08:37AM 34.6653 -91.8089 279° West 387 445 43,000  Level Memphis Center
08:38AM 34.6844 -91.9356 280° West 387 445 43,000  Level Memphis Center
08:39AM 34.7017 -92.0647 279° West 387 445 43,000  Level Memphis Center
08:40AM 34.7206 -92.1964 280° West 392 451 43,000  Level Memphis Center
08:41AM 34.7394 -92.3308 280° West 392 451 43,000  Level Memphis Center
08:42AM 34.7558 -92.4653 278° West 397 457 43,000  Level Memphis Center
08:43AM 34.7767 -92.5972 281° West 402 463 43,000  Level Memphis Center
08:44AM 34.7950 -92.7242 280° West 397 457 43,000  Level Memphis Center
08:45AM 34.8111 -92.8611 278° West 397 457 43,000  Level Memphis Center
08:46AM 34.8294 -92.9908 280° West 397 457 43,000  Level Memphis Center
08:47AM 34.8475 -93.1228 280° West 397 457 43,000  Level Memphis Center
08:48AM 34.8653 -93.2550 279° West 397 457 43,000  Level Memphis Center
08:49AM 34.8828 -93.3925 279° West 397 457 43,000  Level Memphis Center
08:50AM 34.9006 -93.5247 279° West 397 457 43,000  Level Memphis Center
08:51AM 34.9178 -93.6569 279° West 402 463 43,000  Level Memphis Center
08:52AM 34.9350 -93.7919 279° West 407 468 43,000  Level Memphis Center
08:53AM 34.9481 -93.9217 277° West 402 463 43,000  Level Memphis Center
08:54AM 34.9692 -94.0569 281° West 402 463 43,000  Level Memphis Center
08:55AM 34.9881 -94.1894 280° West 402 463 43,000  Level Memphis Center
08:56AM 35.0028 -94.3244 278° West 407 468 43,000  Level Memphis Center
08:57AM 35.0172 -94.4594 277° West 407 468 43,000  Level Memphis Center
08:58AM 35.0247 -94.5233 278° West 409 471 43,000  Level Fort Worth Center
08:59AM 35.0422 -94.6569 279° West 401 461 43,000  Level Fort Worth Center
09:00AM 35.0597 -94.7933 279° West 407 468 43,000  Level Fort Worth Center
09:01AM 35.0731 -94.9325 277° West 412 474 43,000  Level Fort Worth Center
09:02AM 35.0903 -95.0664 279° West 412 474 43,000  Level Fort Worth Center
09:03AM 35.1075 -95.2056 279° West 407 468 43,000  Level Fort Worth Center
09:04AM 35.1200 -95.3397 277° West 407 468 43,000  Level Fort Worth Center
09:05AM 35.1369 -95.4764 279° West 407 468 43,000  Level Fort Worth Center
09:06AM 35.1514 -95.6133 277° West 407 468 43,000  Level Fort Worth Center
09:07AM 35.1703 -95.7653 279° West 407 468 43,000  Level Fort Worth Center
09:08AM 35.1803 -95.8972 275° West 407 468 43,000  Level Fort Worth Center
09:09AM 35.1964 -96.0392 278° West 407 468 43,000  Level Fort Worth Center
09:10AM 35.2125 -96.1761 278° West 412 474 43,000  Level Fort Worth Center
09:11AM 35.2261 -96.3131 277° West 412 474 43,000  Level Fort Worth Center
09:12AM 35.2397 -96.4478 277° West 407 468 43,000  Level Fort Worth Center
09:13AM 35.2556 -96.5872 278° West 407 468 43,000  Level Fort Worth Center
09:14AM 35.2689 -96.7244 277° West 407 468 43,000  Level Fort Worth Center
09:15AM 35.2819 -96.8617 277° West 407 468 43,000  Level Fort Worth Center
09:16AM 35.2972 -97.0017 278° West 407 468 43,000  Level Fort Worth Center
09:17AM 35.3100 -97.1389 277° West 407 468 43,000  Level Fort Worth Center
09:18AM 35.3269 -97.2633 280° West 407 468 43,000  Level Fort Worth Center
09:19AM 35.3394 -97.4161 276° West 412 474 43,000  Level Fort Worth Center
09:20AM 35.3497 -97.5458 276° West 412 474 43,000  Level Fort Worth Center
09:21AM 35.3558 -97.6858 273° West 418 481 43,000  Level Fort Worth Center
09:22AM 35.3556 -97.8233 270° West 418 481 43,000  Level Fort Worth Center
09:23AM 35.3528 -97.9633 269° West 418 481 43,000  Level Fort Worth Center
09:24AM 35.3500 -98.1033 269° West 418 481 43,000  Level Fort Worth Center
09:25AM 35.3492 -98.2433 270° West 418 481 43,000  Level Fort Worth Center
09:26AM 35.3461 -98.3833 269° West 418 481 43,000  Level Fort Worth Center
09:27AM 35.3428 -98.5333 268° West 418 481 43,000  Level Fort Worth Center
09:28AM 35.3372 -98.6733 267° West 413 475 43,000  Level Fort Worth Center
09:29AM 35.3358 -98.8158 269° West 413 475 43,000  Level Fort Worth Center
09:30AM 35.3319 -98.9531 268° West 413 475 43,000  Level Fort Worth Center
09:31AM 35.3303 -99.0931 269° West 418 481 43,000  Level Fort Worth Center
09:32AM 35.3261 -99.2353 268° West 418 481 43,000  Level Fort Worth Center
09:33AM 35.3200 -99.3600 267° West 418 481 43,000  Level Fort Worth Center
09:34AM 35.3203 -99.4622 270° West 413 475 43,000  Level Albuquerque Center
09:35AM 35.3175 -99.6061 269° West 418 481 43,000  Level Albuquerque Center
09:36AM 35.3136 -99.7469 268° West 414 476 43,000  Level Albuquerque Center
09:37AM 35.3083 -99.8883 267° West 413 475 43,000  Level Albuquerque Center
09:38AM 35.3025 -100.0294 267° West 413 475 43,000  Level Albuquerque Center
09:39AM 35.2994 -100.1736 269° West 419 482 43,000  Level Albuquerque Center
09:40AM 35.2936 -100.3144 267° West 415 478 43,000  Level Albuquerque Center
09:41AM 35.2886 -100.4586 268° West 419 482 43,000  Level Albuquerque Center
09:42AM 35.2836 -100.6014 268° West 419 482 43,000  Level Albuquerque Center
09:43AM 35.2778 -100.7539 267° West 419 482 43,000  Level Albuquerque Center
09:44AM 35.2719 -100.8969 267° West 421 484 43,000  Level Albuquerque Center
09:45AM 35.2661 -101.0392 267° West 421 484 43,000  Level Albuquerque Center
09:46AM 35.2594 -101.1806 267° West 418 481 43,000  Level Albuquerque Center
09:47AM 35.2531 -101.3453 267° West 421 484 43,000  Level Albuquerque Center
09:48AM 35.2486 -101.4897 268° West 422 486 43,000  Level Albuquerque Center
09:49AM 35.2414 -101.6322 266° West 420 483 43,000  Level Albuquerque Center
09:50AM 35.2322 -101.7667 265° West 425 489 43,000  Level Albuquerque Center
09:51AM 35.2306 -101.9119 269° West 424 488 43,000  Level Albuquerque Center
09:52AM 35.2256 -102.0542 268° West 422 486 43,000  Level Albuquerque Center
09:53AM 35.2228 -102.2264 269° West 424 488 43,000  Level Albuquerque Center
09:54AM 35.2186 -102.3692 268° West 422 486 43,000  Level Albuquerque Center
09:55AM 35.2150 -102.5108 268° West 419 482 43,000  Level Albuquerque Center
09:56AM 35.2117 -102.6539 268° West 421 484 43,000  Level Albuquerque Center
09:57AM 35.2075 -102.7956 268° West 419 482 43,000  Level Albuquerque Center
09:58AM 35.2039 -102.9386 268° West 421 484 43,000  Level Albuquerque Center
09:59AM 35.1992 -103.0903 268° West 423 487 43,000  Level Albuquerque Center
10:00AM 35.1961 -103.2356 269° West 424 488 43,000  Level Albuquerque Center
10:01AM 35.1903 -103.3808 267° West 425 489 43,000  Level Albuquerque Center
10:02AM 35.1856 -103.5264 268° West 425 489 43,000  Level Albuquerque Center
10:03AM 35.1803 -103.6728 268° West 426 490 43,000  Level Albuquerque Center
10:04AM 35.1731 -103.8172 267° West 424 488 43,000  Level Albuquerque Center
10:05AM 35.1667 -103.9725 267° West 421 484 43,000  Level Albuquerque Center
10:06AM 35.1600 -104.1136 267° West 419 482 43,000  Level Albuquerque Center
10:07AM 35.1533 -104.2558 267° West 419 482 43,000  Level Albuquerque Center
10:08AM 35.1461 -104.3978 266° West 420 483 43,000  Level Albuquerque Center
10:09AM 35.1386 -104.5397 266° West 420 483 43,000  Level Albuquerque Center
10:10AM 35.1300 -104.6894 266° West 422 486 43,000  Level Albuquerque Center
10:11AM 35.1211 -104.8581 266° West 423 487 43,000  Level Albuquerque Center
10:13AM 35.1136 -105.0042 266° West 427 491 43,000  Level Albuquerque Center
10:14AM 35.1078 -105.1492 267° West 425 489 43,000  Level Albuquerque Center
10:15AM 35.1039 -105.2944 268° West 424 488 43,000  Level Albuquerque Center
10:16AM 35.0989 -105.4383 268° West 422 486 43,000  Level Albuquerque Center
10:17AM 35.0942 -105.5817 268° West 420 483 43,000  Level Albuquerque Center
10:18AM 35.0892 -105.7256 268° West 420 483 43,000  Level Albuquerque Center
10:19AM 35.0836 -105.8700 267° West 422 486 43,000  Level Albuquerque Center
10:20AM 35.0792 -106.0061 268° West 422 486 43,000  Level Albuquerque Center
10:21AM 35.0714 -106.1492 266° West 422 486 43,000  Level Albuquerque Center
10:22AM 35.0647 -106.3200 267° West 421 484 43,000  Level Albuquerque Center
10:23AM 35.0592 -106.4617 267° West 419 482 43,000  Level Albuquerque Center
10:24AM 35.0522 -106.6031 267° West 426 490 43,000  Level Albuquerque Center
10:25AM 35.0456 -106.7619 267° West 423 487 43,000  Level Albuquerque Center
10:26AM 35.0417 -106.8989 268° West 421 484 43,000  Level Albuquerque Center
10:27AM 35.0386 -107.0581 269° West 420 483 43,000  Level Albuquerque Center
10:28AM 35.0344 -107.1914 268° West 423 487 43,000  Level Albuquerque Center
10:29AM 35.0297 -107.3375 268° West 429 494 43,000  Level Albuquerque Center
10:30AM 35.0256 -107.4806 268° West 425 489 43,000  Level Albuquerque Center
10:31AM 35.0211 -107.6239 268° West 423 487 43,000  Level Albuquerque Center
10:32AM 35.0169 -107.7675 268° West 424 488 43,000  Level Albuquerque Center
10:33AM 35.0119 -107.9308 268° West 423 487 43,000  Level Albuquerque Center
10:34AM 35.0069 -108.0928 268° West 426 490 43,000  Level Albuquerque Center
10:35AM 35.0022 -108.2308 268° West 426 490 43,000  Level Albuquerque Center
10:36AM 34.9975 -108.3681 268° West 424 488 43,000  Level Albuquerque Center
10:37AM 34.9914 -108.5306 267° West 426 490 43,000  Level Albuquerque Center
10:38AM 34.9864 -108.6675 267° West 424 488 43,000  Level Albuquerque Center
10:39AM 34.9794 -108.8272 267° West 422 486 43,000  Level Albuquerque Center
10:40AM 34.9742 -108.9647 267° West 422 486 43,000  Level Albuquerque Center
10:41AM 34.9678 -109.1267 267° West 425 489 43,000  Level Albuquerque Center
10:42AM 34.9603 -109.2650 266° West 427 491 43,000  Level Albuquerque Center
10:43AM 34.9497 -109.4281 266° West 429 494 43,000  Level Albuquerque Center
10:44AM 34.9383 -109.5633 264° West 424 488 43,000  Level Albuquerque Center
10:45AM 34.9272 -109.7253 265° West 426 490 43,000  Level Albuquerque Center
10:47AM 34.9172 -109.8647 265° West 428 493 43,000  Level Albuquerque Center
10:48AM 34.9075 -110.0067 265° West 434 499 43,000  Level Albuquerque Center
10:49AM 34.8981 -110.1725 266° West 439 505 43,000  Level Albuquerque Center
10:50AM 34.8872 -110.3097 265° West 432 497 43,000  Level Albuquerque Center
10:51AM 34.8731 -110.4681 264° West 424 488 43,000  Level Albuquerque Center
10:52AM 34.8622 -110.6089 265° West 429 494 43,000  Level Albuquerque Center
10:53AM 34.8508 -110.7431 264° West 424 488 43,000  Level Albuquerque Center
10:54AM 34.8350 -110.9158 264° West 427 491 43,000  Level Albuquerque Center
10:55AM 34.8233 -111.0606 264° West 431 496 43,000  Level Albuquerque Center
10:56AM 34.8131 -111.2081 265° West 436 502 43,000  Level Albuquerque Center
10:57AM 34.8019 -111.3522 265° West 435 501 43,000  Level Albuquerque Center
10:58AM 34.7897 -111.4936 264° West 430 495 43,000  Level Albuquerque Center
10:59AM 34.7747 -111.6622 264° West 426 490 43,000  Level Albuquerque Center
11:00AM 34.7625 -111.8053 264° West 423 487 43,000  Level Albuquerque Center
11:01AM 34.7492 -111.9442 263° West 422 486 43,000  Level Albuquerque Center
11:02AM 34.7367 -112.0847 264° West 422 486 43,000  Level Albuquerque Center
11:03AM 34.7247 -112.2244 264° West 419 482 43,000  Level Albuquerque Center
11:04AM 34.7119 -112.3678 264° West 419 482 43,000  Level Albuquerque Center
11:05AM 34.6997 -112.5086 264° West 419 482 43,000  Level Albuquerque Center
11:06AM 34.6789 -112.6764 261° West 419 482 43,000 -240 Level Albuquerque Center
11:07AM 34.6628 -112.8164 262° West 420 483 42,600 -1,260 Descending Albuquerque Center
11:08AM 34.6461 -112.9586 262° West 423 487 40,400 -2,220 Descending Albuquerque Center
11:09AM 34.6286 -113.0989 261° West 421 484 38,100 -2,280 Descending Albuquerque Center
11:10AM 34.6117 -113.2439 262° West 430 495 35,800 -2,280 Descending Albuquerque Center
11:11AM 34.5922 -113.3925 261° West 441 507 33,400 -2,580 Descending Albuquerque Center
11:12AM 34.5692 -113.5756 261° West 453 521 30,500 -1,680 Descending Albuquerque Center
11:13AM 34.5458 -113.7164 259° West 461 531 30,000 -300 Descending Albuquerque Center
11:14AM 34.5081 -113.8986 256° West 464 534 30,000  Level Albuquerque Center
11:15AM 34.4769 -114.0531 256° West 468 539 30,000 -240 Level Albuquerque Center
11:16AM 34.4625 -114.1278 257° West 461 531 29,700 -960 Descending Los Angeles Center
11:17AM 34.4314 -114.2794 256° West 464 534 28,500 -1,200 Descending Los Angeles Center
11:18AM 34.4014 -114.4272 256° West 455 524 27,300 -1,200 Descending Los Angeles Center
11:19AM 34.3700 -114.5758 256° West 457 526 26,100 -1,140 Descending Los Angeles Center
11:20AM 34.3342 -114.7475 256° West 441 507 24,700 -1,320 Descending Los Angeles Center
11:21AM 34.2992 -114.9125 256° West 428 493 23,200 -1,620 Descending Los Angeles Center
11:22AM 34.2700 -115.0481 255° West 421 484 21,400 -1,740 Descending Los Angeles Center
11:23AM 34.2328 -115.1719 250° West 394 453 19,600 -1,860 Descending Los Angeles Center
11:24AM 34.1831 -115.2867 242° Southwest 385 443 17,600 -1,860 Descending Los Angeles Center
11:26AM 34.1356 -115.3981 243° Southwest 375 432 15,800 -1,980 Descending Los Angeles Center
11:27AM 34.0811 -115.5256 243° Southwest 360 414 13,500 -1,980 Descending Los Angeles Center
11:28AM 34.0375 -115.6286 243° Southwest 349 402 11,700 -1,740 Descending Los Angeles Center
11:29AM 33.9922 -115.7297 242° Southwest 347 399 10,000 -900 Descending Los Angeles Center
11:30AM 33.9492 -115.8311 243° Southwest 344 396 9,900 -60 Descending Los Angeles Center
11:31AM 33.9058 -115.9322 243° Southwest 342 394 9,900 -480 Level Los Angeles Center
11:32AM 33.8900 -116.0214 258° West 289 333 9,000 -1,320 Descending Los Angeles Center
11:33AM 33.8414 -116.0975 232° Southwest 258 297 7,200 -1,500 Descending Los Angeles Center
11:34AM 33.7942 -116.1558 226° Southwest 244 281 5,900 -1,740 Descending Los Angeles Center
11:36AM 33.7167 -116.2167 213° Southwest 146 168 1,400 -1,980 Descending Southern California TRACON